Time;durP1;ratioP1;P1;durP2;ratioP2;P2;SDS_P1;SDS_P2;PMS_P1;PMS_P2;Temp;Humidity;BMP_temperature;BMP_pressure;BME280_temperature;BME280_humidity;BME280_pressure;Samples;Min_cycle;Max_cycle;Signal;HPM_P1;HPM_P2
2022/03/19 00:01:32;;;;;;;10.05;5.18;;;5.70;67.80;;;;;;4976818;28;20046;-77
2022/03/19 00:03:57;;;;;;;10.20;4.57;;;5.70;67.90;;;;;;4990104;28;20113;-77
2022/03/19 00:06:23;;;;;;;12.25;4.78;;;5.70;68.00;;;;;;4976528;28;20035;-77
2022/03/19 00:08:49;;;;;;;11.90;5.10;;;5.60;68.00;;;;;;4984714;28;20108;-78
2022/03/19 00:11:14;;;;;;;10.60;4.85;;;5.60;68.10;;;;;;4984011;28;20036;-76
2022/03/19 00:13:40;;;;;;;10.07;4.22;;;5.60;68.10;;;;;;4950645;28;20043;-77
2022/03/19 00:16:06;;;;;;;10.60;4.15;;;5.60;68.20;;;;;;4954935;28;20043;-76
2022/03/19 00:18:31;;;;;;;8.65;4.03;;;5.50;69.10;;;;;;4982356;28;20046;-76
2022/03/19 00:20:57;;;;;;;11.98;4.38;;;5.50;68.30;;;;;;4959044;28;20123;-77
2022/03/19 00:23:22;;;;;;;7.30;4.22;;;5.40;68.30;;;;;;4948108;28;20058;-76
2022/03/19 00:25:48;;;;;;;8.52;4.03;;;5.40;68.40;;;;;;4974711;28;20723;-77
2022/03/19 00:28:18;;;;;;;13.60;4.57;;;5.40;68.40;;;;;;4968100;28;20499;-77
2022/03/19 00:30:44;;;;;;;8.00;3.80;;;5.40;68.50;;;;;;4984608;28;20038;-77
2022/03/19 00:33:10;;;;;;;10.73;3.85;;;5.40;68.60;;;;;;4987512;28;20038;-76
2022/03/19 00:35:36;;;;;;;10.50;3.80;;;5.30;68.60;;;;;;4983166;28;20498;-76
2022/03/19 00:38:04;;;;;;;10.93;4.03;;;5.30;68.60;;;;;;4961249;28;20058;-77
2022/03/19 00:40:30;;;;;;;9.93;4.38;;;5.30;68.70;;;;;;4991267;28;20076;-76
2022/03/19 00:42:55;;;;;;;14.07;4.50;;;5.30;68.80;;;;;;4968629;28;20042;-77
2022/03/19 00:45:21;;;;;;;9.88;4.45;;;5.20;68.80;;;;;;4969445;28;20048;-77
2022/03/19 00:47:47;;;;;;;9.85;4.68;;;5.20;68.80;;;;;;4990705;28;20668;-77
2022/03/19 00:50:12;;;;;;;12.63;4.70;;;5.20;68.80;;;;;;4967708;28;20387;-77
2022/03/19 00:52:38;;;;;;;9.30;4.82;;;5.20;69.80;;;;;;4998666;28;20459;-77
2022/03/19 00:55:03;;;;;;;8.48;4.30;;;5.10;68.90;;;;;;4990303;28;20569;-77
2022/03/19 00:57:39;;;;;;;10.55;3.97;;;5.10;69.00;;;;;;4969547;28;20038;-76
2022/03/19 01:00:05;;;;;;;14.18;4.82;;;5.10;69.10;;;;;;4971395;28;20026;-77
2022/03/19 01:02:31;;;;;;;9.88;4.78;;;5.10;69.10;;;;;;4977125;28;20033;-77
2022/03/19 01:04:56;;;;;;;10.35;4.20;;;5.10;69.10;;;;;;4989269;28;20049;-78
2022/03/19 01:07:22;;;;;;;10.65;4.00;;;5.00;69.10;;;;;;4998216;28;20113;-77
2022/03/19 01:09:47;;;;;;;9.00;4.07;;;5.00;69.20;;;;;;4980587;28;20108;-77
2022/03/19 01:12:13;;;;;;;14.10;4.15;;;4.90;69.20;;;;;;4981682;28;20482;-77
2022/03/19 01:14:38;;;;;;;10.90;4.60;;;5.00;69.30;;;;;;4982573;28;20507;-76
2022/03/19 01:17:06;;;;;;;10.10;4.13;;;4.90;69.30;;;;;;4986413;28;20037;-77
2022/03/19 01:22:16;;;;;;;9.65;4.05;;;4.90;69.50;;;;;;4978319;28;20099;-76
2022/03/19 01:24:41;;;;;;;10.25;3.92;;;4.80;69.50;;;;;;4984080;28;20550;-76
2022/03/19 01:27:07;;;;;;;10.65;4.10;;;4.80;69.60;;;;;;4985101;28;20138;-76
2022/03/19 01:29:32;;;;;;;9.80;4.15;;;4.80;69.60;;;;;;4983509;28;20317;-76
2022/03/19 01:31:58;;;;;;;7.68;4.07;;;4.80;69.60;;;;;;4977506;28;20110;-76
2022/03/19 01:34:23;;;;;;;12.93;4.00;;;4.70;69.60;;;;;;4975076;28;20080;-78
2022/03/19 01:36:49;;;;;;;11.88;4.28;;;4.70;69.80;;;;;;4981649;28;20122;-76
2022/03/19 01:39:14;;;;;;;8.02;4.13;;;4.70;69.80;;;;;;4995564;28;20118;-76
2022/03/19 01:41:41;;;;;;;13.60;4.35;;;4.70;69.80;;;;;;4994228;28;20503;-77
2022/03/19 01:44:06;;;;;;;7.45;3.75;;;4.60;69.90;;;;;;4965713;28;20799;-76
2022/03/19 01:46:59;;;;;;;10.35;4.50;;;4.60;69.90;;;;;;4974069;28;20046;-77
2022/03/19 01:49:25;;;;;;;7.28;3.80;;;4.60;70.20;;;;;;4981582;28;20034;-76
2022/03/19 01:51:50;;;;;;;7.15;3.70;;;4.60;70.00;;;;;;5001634;28;20035;-77
2022/03/19 01:54:16;;;;;;;8.30;3.90;;;4.60;70.00;;;;;;4967269;28;20091;-76
2022/03/19 01:56:43;;;;;;;9.63;4.25;;;4.50;70.10;;;;;;4983766;28;20034;-78
2022/03/19 01:59:08;;;;;;;8.90;3.92;;;4.50;70.10;;;;;;4981116;28;20050;-76
2022/03/19 02:01:34;;;;;;;13.23;4.38;;;4.50;70.10;;;;;;4973035;28;20042;-77
2022/03/19 02:03:59;;;;;;;9.32;3.90;;;4.50;70.20;;;;;;4975448;28;20034;-76
2022/03/19 02:06:28;;;;;;;10.57;3.97;;;4.50;70.30;;;;;;4976529;28;20046;-77
2022/03/19 02:08:54;;;;;;;10.52;3.70;;;4.40;70.30;;;;;;4974605;28;20046;-77
2022/03/19 02:11:20;;;;;;;9.40;4.25;;;4.40;70.30;;;;;;4981182;28;20092;-77
2022/03/19 02:13:46;;;;;;;9.63;4.57;;;4.40;70.30;;;;;;4996438;28;20069;-77
2022/03/19 02:16:12;;;;;;;11.32;4.20;;;4.30;70.30;;;;;;4986317;28;20061;-77
2022/03/19 02:18:38;;;;;;;11.93;4.70;;;4.30;70.40;;;;;;4988106;28;20042;-77
2022/03/19 02:21:03;;;;;;;8.30;3.72;;;4.30;70.40;;;;;;4982325;28;20565;-76
2022/03/19 02:26:13;;;;;;;8.48;4.00;;;4.20;70.50;;;;;;4981622;28;20049;-76
2022/03/19 02:28:39;;;;;;;8.50;3.88;;;4.20;70.50;;;;;;4985266;28;20038;-77
2022/03/19 02:31:04;;;;;;;9.40;4.38;;;4.10;70.50;;;;;;4981825;28;20042;-77
2022/03/19 02:33:30;;;;;;;10.35;4.38;;;4.10;70.60;;;;;;4998698;28;20475;-77
2022/03/19 02:35:55;;;;;;;10.68;4.13;;;4.10;70.70;;;;;;4979805;28;20065;-76
2022/03/19 02:38:21;;;;;;;8.70;3.50;;;4.10;70.70;;;;;;4965366;28;20089;-77
2022/03/19 02:40:46;;;;;;;8.00;3.47;;;4.00;70.70;;;;;;4993826;28;20045;-77
2022/03/19 02:43:12;;;;;;;8.02;3.45;;;4.00;70.80;;;;;;4999422;28;20046;-76
2022/03/19 02:45:37;;;;;;;9.10;4.00;;;4.00;70.80;;;;;;4961515;28;20038;-76
2022/03/19 02:48:07;;;;;;;9.80;3.90;;;3.90;70.90;;;;;;4998750;28;20434;-76
2022/03/19 02:50:34;;;;;;;8.32;3.63;;;3.90;70.90;;;;;;5021147;28;20054;-77
2022/03/19 02:53:06;;;;;;;8.70;3.88;;;3.90;71.00;;;;;;4973666;28;20038;-76
2022/03/19 02:55:34;;;;;;;;;;;3.90;71.20;;;;;;4982651;28;20048;-77
2022/03/19 02:58:00;;;;;;;6.38;3.38;;;3.80;70.90;;;;;;4998975;28;19957;-77
2022/03/19 03:00:26;;;;;;;6.32;3.83;;;3.80;70.90;;;;;;5008555;28;20117;-76
2022/03/19 03:02:52;;;;;;;10.52;3.95;;;3.80;71.00;;;;;;4979832;28;20121;-76
2022/03/19 03:05:17;;;;;;;8.65;3.40;;;3.80;71.10;;;;;;4965343;28;20112;-77
2022/03/19 03:07:43;;;;;;;6.63;3.35;;;3.70;71.20;;;;;;4982972;28;20538;-77
2022/03/19 03:10:08;;;;;;;6.65;3.20;;;3.70;71.20;;;;;;4987692;28;20144;-77
2022/03/19 03:12:34;;;;;;;10.07;3.40;;;3.70;71.30;;;;;;4981966;28;20101;-78
2022/03/19 03:15:00;;;;;;;10.85;3.33;;;3.60;71.30;;;;;;4962599;28;20030;-76
2022/03/19 03:17:25;;;;;;;14.40;3.78;;;3.60;71.40;;;;;;4985474;28;20065;-77
2022/03/19 03:19:51;;;;;;;8.40;3.42;;;3.60;71.50;;;;;;4970945;28;20058;-77
2022/03/19 03:22:17;;;;;;;6.82;3.17;;;3.50;71.50;;;;;;4982141;28;20524;-77
2022/03/19 03:24:42;;;;;;;7.68;3.38;;;3.50;71.60;;;;;;4993142;28;20129;-76
2022/03/19 03:27:08;;;;;;;7.35;3.00;;;3.50;71.60;;;;;;4996356;28;20034;-76
2022/03/19 03:29:33;;;;;;;8.52;3.67;;;3.50;71.70;;;;;;4978884;28;20057;-76
2022/03/19 03:31:59;;;;;;;10.32;3.15;;;3.40;71.70;;;;;;4988026;28;20418;-77
2022/03/19 03:34:25;;;;;;;11.73;4.35;;;3.40;71.70;;;;;;4990680;28;20018;-77
2022/03/19 03:36:50;;;;;;;6.32;3.40;;;3.40;71.80;;;;;;4963631;28;20609;-77
2022/03/19 03:39:16;;;;;;;8.95;3.30;;;3.30;71.90;;;;;;4984330;28;20040;-76
2022/03/19 03:41:41;;;;;;;6.10;3.30;;;3.30;71.90;;;;;;4966806;28;20034;-76
2022/03/19 03:44:07;;;;;;;7.20;3.40;;;3.30;72.00;;;;;;4986165;28;20084;-77
2022/03/19 03:46:32;;;;;;;9.57;3.30;;;3.30;72.00;;;;;;4977858;28;20046;-77
2022/03/19 03:48:58;;;;;;;7.57;2.97;;;3.20;72.10;;;;;;4978656;28;20041;-77
2022/03/19 03:51:23;;;;;;;7.75;3.40;;;3.20;72.10;;;;;;4963008;28;20030;-77
2022/03/19 03:53:49;;;;;;;9.50;3.25;;;3.20;72.10;;;;;;4962759;28;20047;-76
2022/03/19 03:56:14;;;;;;;8.88;3.08;;;3.20;72.30;;;;;;4980270;28;20475;-78
2022/03/19 03:58:43;;;;;;;8.77;3.50;;;3.10;72.30;;;;;;4976408;28;21568;-77
2022/03/19 04:01:08;;;;;;;6.30;3.17;;;3.10;72.40;;;;;;4981445;28;20043;-77
2022/03/19 04:03:34;;;;;;;8.80;3.72;;;3.10;72.40;;;;;;4974097;28;20042;-78
2022/03/19 04:06:00;;;;;;;8.27;3.05;;;3.10;72.60;;;;;;4999511;28;20041;-76
2022/03/19 04:08:25;;;;;;;6.82;2.70;;;3.00;72.50;;;;;;4983618;28;20072;-77
2022/03/19 04:10:51;;;;;;;8.95;2.80;;;3.00;72.50;;;;;;4965651;28;20057;-77
2022/03/19 04:13:16;;;;;;;5.20;3.08;;;3.00;72.50;;;;;;4976338;28;20038;-77
2022/03/19 04:15:42;;;;;;;5.32;2.60;;;3.00;72.70;;;;;;4982273;28;20045;-77
2022/03/19 04:18:08;;;;;;;9.57;3.20;;;2.90;72.60;;;;;;4983900;28;20035;-77
2022/03/19 04:20:33;;;;;;;7.53;2.90;;;2.90;72.70;;;;;;4991062;28;20856;-77
2022/03/19 04:22:59;;;;;;;8.35;2.90;;;2.90;72.80;;;;;;4976064;28;20121;-77
2022/03/19 04:25:25;;;;;;;7.22;2.92;;;2.90;72.80;;;;;;4981958;28;20031;-78
2022/03/19 04:27:52;;;;;;;9.82;3.10;;;2.80;72.80;;;;;;4986453;28;20068;-76
2022/03/19 04:30:18;;;;;;;4.97;2.65;;;2.80;72.90;;;;;;4970115;28;20026;-77
2022/03/19 04:33:04;;;;;;;7.05;3.47;;;2.80;73.00;;;;;;4989184;28;20034;-77
2022/03/19 04:38:15;;;;;;;7.13;2.83;;;2.70;72.90;;;;;;4994845;28;20177;-77
2022/03/19 04:40:41;;;;;;;8.48;2.90;;;2.70;73.00;;;;;;4958786;28;20030;-76
2022/03/19 04:43:07;;;;;;;10.35;2.92;;;2.70;73.10;;;;;;4981587;28;20034;-78
2022/03/19 04:45:34;;;;;;;10.27;2.60;;;2.70;73.20;;;;;;4999495;28;20035;-78
2022/03/19 04:47:59;;;;;;;8.48;3.03;;;2.60;73.20;;;;;;5002779;28;20029;-77
2022/03/19 04:50:25;;;;;;;5.28;2.58;;;2.60;73.20;;;;;;4984956;28;20022;-77
2022/03/19 04:52:50;;;;;;;12.02;2.90;;;2.60;73.30;;;;;;4979376;28;20116;-77
2022/03/19 04:55:16;;;;;;;7.43;2.53;;;2.60;73.40;;;;;;4981741;28;20047;-77
2022/03/19 04:57:41;;;;;;;8.70;3.05;;;2.50;73.30;;;;;;4996554;28;20041;-77
2022/03/19 05:00:09;;;;;;;8.00;2.85;;;2.50;73.40;;;;;;4986241;28;20045;-79
2022/03/19 05:02:34;;;;;;;8.13;2.83;;;2.50;73.50;;;;;;4973903;28;20069;-78
2022/03/19 05:05:03;;;;;;;4.93;2.60;;;2.50;73.50;;;;;;4987203;28;20601;-77
2022/03/19 05:07:28;;;;;;;8.77;3.38;;;2.50;73.50;;;;;;4984177;28;20101;-76
2022/03/19 05:12:40;;;;;;;8.25;2.75;;;2.40;73.60;;;;;;4975113;28;20487;-76
2022/03/19 05:15:07;;;;;;;10.70;3.00;;;2.40;73.60;;;;;;4972827;28;20439;-77
2022/03/19 05:17:32;;;;;;;9.15;3.30;;;2.30;73.60;;;;;;4994747;28;20045;-77
2022/03/19 05:19:58;;;;;;;7.80;2.55;;;2.30;73.60;;;;;;4991975;28;20038;-77
2022/03/19 05:22:23;;;;;;;4.75;2.63;;;2.30;73.70;;;;;;4954473;28;20547;-77
2022/03/19 05:24:49;;;;;;;7.53;3.33;;;2.30;73.80;;;;;;4982957;28;20037;-77
2022/03/19 05:27:15;;;;;;;5.82;2.65;;;2.30;73.90;;;;;;4956242;28;20096;-76
2022/03/19 05:29:40;;;;;;;6.00;2.55;;;2.30;74.00;;;;;;4972525;28;20042;-77
2022/03/19 05:32:06;;;;;;;9.00;2.92;;;2.20;74.00;;;;;;4948258;28;20030;-77
2022/03/19 05:34:32;;;;;;;11.75;3.30;;;2.20;74.00;;;;;;4969010;28;20494;-77
2022/03/19 05:36:59;;;;;;;7.30;2.60;;;2.20;74.00;;;;;;4960955;28;20038;-77
2022/03/19 05:39:25;;;;;;;8.07;2.72;;;2.10;74.00;;;;;;4977215;28;20031;-78
2022/03/19 05:41:51;;;;;;;8.88;3.13;;;2.10;74.00;;;;;;4999142;28;20129;-77
2022/03/19 05:44:16;;;;;;;9.85;3.53;;;2.10;74.10;;;;;;4967558;28;20099;-78
2022/03/19 05:46:42;;;;;;;9.45;3.28;;;2.10;74.20;;;;;;4975322;28;20054;-77
2022/03/19 05:49:07;;;;;;;11.88;3.58;;;2.00;74.10;;;;;;4965297;28;20038;-77
2022/03/19 05:51:33;;;;;;;12.52;3.30;;;2.00;74.20;;;;;;5012752;28;20053;-77
2022/03/19 05:53:59;;;;;;;14.10;3.22;;;2.00;74.30;;;;;;4976548;28;20037;-78
2022/03/19 05:56:24;;;;;;;9.50;3.35;;;2.00;74.40;;;;;;4979057;28;20053;-78
2022/03/19 05:58:50;;;;;;;7.05;2.92;;;2.00;74.60;;;;;;4986135;28;20038;-78
2022/03/19 06:01:16;;;;;;;8.82;3.08;;;2.00;74.60;;;;;;4963854;28;20120;-78
2022/03/19 06:03:41;;;;;;;7.07;3.15;;;2.00;74.70;;;;;;5003058;28;20108;-77
2022/03/19 06:06:07;;;;;;;8.77;2.80;;;2.00;74.80;;;;;;5030231;28;20045;-78
2022/03/19 06:08:32;;;;;;;6.53;3.22;;;2.00;74.90;;;;;;4982410;28;20050;-77
2022/03/19 06:10:58;;;;;;;11.27;3.22;;;2.00;74.80;;;;;;4949381;28;20126;-80
2022/03/19 06:13:24;;;;;;;7.88;2.50;;;2.00;74.90;;;;;;5008096;28;20113;-77
2022/03/19 06:15:49;;;;;;;12.88;3.10;;;2.00;74.90;;;;;;4982000;28;20119;-77
2022/03/19 06:18:15;;;;;;;10.10;2.95;;;2.00;75.00;;;;;;4976359;28;20046;-78
2022/03/19 06:20:40;;;;;;;8.68;3.22;;;2.00;75.10;;;;;;4981398;28;20077;-77
2022/03/19 06:23:06;;;;;;;8.10;3.25;;;2.00;75.30;;;;;;4984408;28;21011;-77
2022/03/19 06:25:31;;;;;;;6.28;3.22;;;2.00;75.30;;;;;;4974255;28;20101;-77
2022/03/19 06:27:57;;;;;;;8.98;3.30;;;2.10;75.40;;;;;;4939163;28;20688;-77
2022/03/19 06:30:24;;;;;;;6.53;3.20;;;2.10;75.50;;;;;;4978983;28;20046;-78
2022/03/19 06:32:49;;;;;;;8.40;3.75;;;2.10;75.50;;;;;;4970285;28;20037;-78
2022/03/19 06:37:19;;;;;;;9.73;4.70;;;2.10;75.60;;;;;;4980896;28;20026;-81
2022/03/19 06:38:00;;;;;;;12.43;5.38;;;2.20;75.70;;;;;;5005676;28;20580;-78
2022/03/19 06:40:26;;;;;;;14.18;7.30;;;2.20;75.60;;;;;;4959906;28;20121;-78
2022/03/19 06:42:52;;;;;;;14.95;8.07;;;2.30;75.80;;;;;;4966228;28;20042;-77
2022/03/19 06:45:17;;;;;;;17.20;7.07;;;2.40;75.90;;;;;;4965673;28;20043;-77
2022/03/19 06:47:43;;;;;;;12.40;6.25;;;2.40;76.00;;;;;;4955318;28;20088;-78
2022/03/19 06:50:08;;;;;;;17.45;7.93;;;2.50;76.00;;;;;;4967287;28;22378;-77
2022/03/19 06:52:34;;;;;;;13.35;7.32;;;2.60;76.10;;;;;;4983707;28;20042;-78
2022/03/19 06:54:59;;;;;;;32.85;21.15;;;2.70;76.10;;;;;;4980988;28;20133;-77
2022/03/19 06:57:25;;;;;;;27.95;12.85;;;2.70;76.10;;;;;;4970337;28;20479;-77
2022/03/19 06:59:51;;;;;;;24.60;10.43;;;2.80;76.20;;;;;;4981724;28;20478;-79
2022/03/19 07:02:16;;;;;;;23.52;13.02;;;2.90;76.20;;;;;;4987206;28;20104;-77
2022/03/19 07:04:42;;;;;;;39.78;18.08;;;3.00;76.20;;;;;;4990190;28;20096;-78
2022/03/19 07:07:07;;;;;;;102.75;35.72;;;3.10;76.20;;;;;;4986719;28;20033;-77
2022/03/19 07:09:33;;;;;;;81.43;27.77;;;3.30;76.20;;;;;;4967729;28;20033;-79
2022/03/19 07:11:58;;;;;;;44.75;17.05;;;3.40;76.20;;;;;;4981700;28;20026;-78
2022/03/19 07:14:24;;;;;;;40.72;15.43;;;3.50;76.20;;;;;;4969210;28;20423;-78
2022/03/19 07:16:49;;;;;;;26.33;9.77;;;3.70;76.30;;;;;;4997517;28;20124;-78
2022/03/19 07:19:15;;;;;;;20.48;7.10;;;3.80;76.20;;;;;;4974973;28;20176;-78
2022/03/19 07:21:41;;;;;;;15.70;7.05;;;4.00;76.20;;;;;;5000022;28;20042;-78
2022/03/19 07:24:07;;;;;;;15.63;6.63;;;4.10;76.10;;;;;;4982543;28;20045;-78
2022/03/19 07:26:33;;;;;;;14.85;6.78;;;4.30;76.00;;;;;;4975319;28;20033;-78
2022/03/19 07:28:59;;;;;;;15.50;6.43;;;4.50;76.00;;;;;;4988790;28;20026;-78
2022/03/19 07:31:25;;;;;;;11.38;6.00;;;4.60;75.80;;;;;;4977162;28;20425;-77
2022/03/19 07:33:50;;;;;;;15.27;6.68;;;4.90;75.80;;;;;;4966888;28;20038;-77
2022/03/19 07:36:18;;;;;;;19.58;6.93;;;5.00;75.60;;;;;;4980080;28;20038;-77
2022/03/19 07:38:43;;;;;;;17.95;6.60;;;5.20;75.50;;;;;;4962842;28;20400;-77
2022/03/19 07:43:53;;;;;;;14.63;6.30;;;5.60;75.20;;;;;;4988691;28;20041;-78
2022/03/19 07:46:20;;;;;;;16.05;6.78;;;5.80;74.90;;;;;;4962665;28;20069;-72
2022/03/19 07:48:46;;;;;;;12.02;7.10;;;6.00;74.90;;;;;;4987492;28;20988;-72
2022/03/19 07:51:11;;;;;;;15.57;6.13;;;6.20;74.60;;;;;;4966738;28;20118;-77
2022/03/19 07:53:37;;;;;;;18.50;7.05;;;6.40;74.60;;;;;;4957150;28;20039;-77
2022/03/19 07:56:03;;;;;;;18.75;7.07;;;6.50;74.30;;;;;;4995554;28;20042;-78
2022/03/19 07:58:29;;;;;;;14.13;6.47;;;6.80;74.10;;;;;;4982551;28;20045;-77
2022/03/19 08:00:54;;;;;;;16.85;6.60;;;6.90;73.90;;;;;;4967190;28;20022;-76
2022/03/19 08:03:20;;;;;;;14.25;6.32;;;7.10;73.60;;;;;;4962891;28;20034;-77
2022/03/19 08:05:45;;;;;;;17.35;6.50;;;7.30;73.40;;;;;;4977577;28;20131;-79
2022/03/19 08:08:11;;;;;;;11.95;6.05;;;7.50;73.20;;;;;;4964742;28;20109;-79
2022/03/19 08:10:37;;;;;;;10.63;5.63;;;7.60;72.90;;;;;;4985757;28;20043;-78
2022/03/19 08:13:06;;;;;;;11.65;5.72;;;7.80;72.60;;;;;;4967186;28;20038;-77
2022/03/19 08:15:32;;;;;;;11.88;5.60;;;8.00;72.40;;;;;;4978734;28;20038;-78
2022/03/19 08:18:01;;;;;;;14.40;6.10;;;8.20;72.10;;;;;;4955020;28;20164;-79
2022/03/19 08:20:27;;;;;;;11.35;5.45;;;8.40;71.90;;;;;;4989554;28;20121;-79
2022/03/19 08:22:52;;;;;;;16.67;5.45;;;8.50;71.60;;;;;;4995508;28;20204;-77
2022/03/19 08:25:18;;;;;;;11.13;5.13;;;8.70;71.20;;;;;;4958634;28;20113;-78
2022/03/19 08:27:44;;;;;;;15.52;5.72;;;8.90;70.80;;;;;;4994647;28;20034;-78
2022/03/19 08:30:10;;;;;;;9.25;4.70;;;9.10;70.40;;;;;;4985086;28;20080;-78
2022/03/19 08:32:36;;;;;;;13.60;5.20;;;9.20;70.00;;;;;;4979544;28;20077;-78
2022/03/19 08:35:01;;;;;;;11.70;4.47;;;9.40;69.80;;;;;;4969474;28;20522;-78
2022/03/19 08:37:27;;;;;;;9.15;3.40;;;9.60;69.40;;;;;;4981684;28;20022;-78
2022/03/19 08:42:37;;;;;;;8.50;3.92;;;9.90;68.70;;;;;;4970633;28;20040;-79
2022/03/19 08:45:03;;;;;;;5.57;3.72;;;10.00;68.30;;;;;;4985848;28;20038;-78
2022/03/19 08:47:29;;;;;;;7.60;3.65;;;10.20;68.00;;;;;;4996930;28;20035;-78
2022/03/19 08:49:55;;;;;;;7.07;3.53;;;10.40;67.60;;;;;;4954191;28;20036;-79
2022/03/19 08:52:21;;;;;;;9.13;4.22;;;10.50;67.40;;;;;;5013023;28;20094;-78
2022/03/19 08:54:47;;;;;;;8.77;4.05;;;10.70;67.20;;;;;;4985851;28;20058;-78
2022/03/19 08:57:13;;;;;;;7.93;3.80;;;10.90;67.00;;;;;;4994599;28;20049;-78
2022/03/19 08:59:39;;;;;;;6.72;3.72;;;11.00;66.50;;;;;;4982744;28;20153;-78
2022/03/19 09:02:04;;;;;;;9.02;3.72;;;11.20;66.10;;;;;;4985107;28;20117;-79
2022/03/19 09:04:31;;;;;;;7.18;4.00;;;11.30;65.70;;;;;;4957114;28;20482;-79
2022/03/19 09:06:57;;;;;;;8.35;3.50;;;11.50;65.40;;;;;;4965770;28;20045;-79
2022/03/19 09:09:23;;;;;;;5.75;3.08;;;11.60;64.70;;;;;;4948903;28;20034;-78
2022/03/19 09:11:48;;;;;;;4.97;3.05;;;11.70;64.40;;;;;;4985937;28;20046;-79
2022/03/19 09:14:14;;;;;;;7.22;3.05;;;11.90;64.00;;;;;;4994279;28;20034;-79
2022/03/19 09:16:40;;;;;;;8.32;3.50;;;12.00;63.50;;;;;;4985574;28;20038;-80
2022/03/19 09:19:06;;;;;;;6.85;3.15;;;12.10;63.10;;;;;;4972921;28;20065;-79
2022/03/19 09:21:31;;;;;;;6.28;3.20;;;12.20;62.60;;;;;;4984663;28;20418;-78
2022/03/19 09:23:57;;;;;;;6.35;3.00;;;12.30;62.40;;;;;;4944904;28;20041;-79
2022/03/19 09:26:23;;;;;;;6.65;3.08;;;12.40;61.80;;;;;;4994460;28;20050;-78
2022/03/19 09:28:48;;;;;;;5.75;2.67;;;12.50;61.60;;;;;;4980660;28;20042;-79
2022/03/19 09:31:16;;;;;;;7.63;3.28;;;12.60;61.10;;;;;;4982128;28;20030;-78
2022/03/19 09:33:42;;;;;;;7.22;3.45;;;12.80;60.90;;;;;;4965512;28;20125;-78
2022/03/19 09:36:08;;;;;;;11.35;3.38;;;12.90;60.70;;;;;;4971215;28;20125;-74
2022/03/19 09:38:33;;;;;;;6.88;2.92;;;13.10;60.40;;;;;;4979861;28;20073;-73
2022/03/19 09:40:59;;;;;;;7.53;2.53;;;13.30;60.10;;;;;;4983575;28;20803;-74
2022/03/19 09:43:27;;;;;;;5.85;2.72;;;13.50;59.70;;;;;;4976827;28;20030;-73
2022/03/19 09:45:53;;;;;;;8.98;2.72;;;13.60;59.10;;;;;;4940650;28;20040;-78
2022/03/19 09:48:19;;;;;;;4.28;2.30;;;13.80;58.80;;;;;;4983382;28;20410;-79
2022/03/19 09:50:45;;;;;;;5.97;2.03;;;13.90;58.20;;;;;;4988859;28;20030;-78
2022/03/19 09:53:11;;;;;;;4.82;2.05;;;13.90;57.60;;;;;;4990946;28;20037;-80
2022/03/19 09:55:37;;;;;;;3.38;1.73;;;14.10;57.20;;;;;;4986319;28;20050;-78
2022/03/19 09:58:04;;;;;;;2.25;1.70;;;14.10;56.70;;;;;;4982924;28;20121;-72
2022/03/19 10:00:30;;;;;;;4.20;2.28;;;14.30;56.30;;;;;;4990334;28;20045;-82
2022/03/19 10:03:02;;;;;;;2.63;1.50;;;14.40;55.60;;;;;;4961706;28;20034;-78
2022/03/19 10:11:11;;;;;;;4.80;1.58;;;14.70;54.50;;;;;;4985351;28;20031;-75
2022/03/19 10:13:42;;;;;;;7.03;2.25;;;14.70;53.80;;;;;;5008654;28;20342;-79
2022/03/19 10:16:07;;;;;;;5.15;1.92;;;14.80;53.40;;;;;;4986324;28;20049;-79
2022/03/19 10:18:33;;;;;;;4.40;1.77;;;14.80;53.00;;;;;;4967943;28;20419;-79
2022/03/19 10:21:03;;;;;;;3.75;1.80;;;14.80;52.50;;;;;;4962399;28;20050;-79
2022/03/19 10:23:37;;;;;;;3.97;1.85;;;14.80;52.10;;;;;;4964511;28;20085;-78
2022/03/19 10:26:03;;;;;;;4.72;1.88;;;14.90;51.60;;;;;;4955148;28;20038;-80
2022/03/19 10:28:32;;;;;;;3.35;1.80;;;15.00;51.80;;;;;;4995300;28;20049;-83
2022/03/19 10:30:58;;;;;;;2.97;1.63;;;15.00;51.10;;;;;;5004513;28;20067;-82
2022/03/19 10:33:28;;;;;;;3.58;1.90;;;15.10;51.10;;;;;;4987100;28;20066;-82
2022/03/19 10:36:07;;;;;;;2.85;1.52;;;15.30;50.70;;;;;;4975721;28;20070;-79
2022/03/19 10:38:44;;;;;;;3.17;1.45;;;15.40;49.70;;;;;;4995200;28;20716;-82
2022/03/19 10:41:09;;;;;;;3.10;1.50;;;15.50;49.50;;;;;;4986488;28;20407;-80
2022/03/19 10:43:35;;;;;;;4.95;1.40;;;15.60;49.90;;;;;;5004433;28;20039;-80
2022/03/19 10:46:02;;;;;;;2.90;1.58;;;15.80;49.70;;;;;;4984993;28;20091;-81
2022/03/19 10:48:28;;;;;;;3.95;1.17;;;15.90;49.30;;;;;;4982590;28;20133;-81
2022/03/19 10:50:54;;;;;;;2.10;1.20;;;16.00;48.80;;;;;;4980931;28;20038;-82
2022/03/19 10:53:22;;;;;;;3.83;1.13;;;16.10;48.40;;;;;;4996934;28;20130;-82
2022/03/19 10:55:47;;;;;;;3.22;1.05;;;16.20;48.10;;;;;;4998457;28;20118;-81
2022/03/19 10:58:13;;;;;;;2.72;0.90;;;16.20;47.60;;;;;;4987774;28;20042;-81
2022/03/19 11:00:38;;;;;;;1.65;0.70;;;16.20;47.00;;;;;;4993173;28;20080;-81
2022/03/19 11:03:29;;;;;;;1.35;0.73;;;16.20;46.60;;;;;;4985109;28;20501;-80
2022/03/19 11:05:56;;;;;;;1.52;0.80;;;16.20;44.40;;;;;;4983889;28;20038;-80
2022/03/19 11:08:23;;;;;;;2.55;0.80;;;16.20;45.40;;;;;;5007221;28;20035;-80
2022/03/19 11:10:48;;;;;;;2.10;0.85;;;16.20;45.30;;;;;;4952266;28;20144;-81
2022/03/19 11:13:16;;;;;;;2.47;0.70;;;16.30;45.00;;;;;;4971679;28;20030;-82
2022/03/19 11:15:42;;;;;;;3.30;1.25;;;16.30;44.70;;;;;;4953852;28;20046;-80
2022/03/19 11:18:07;;;;;;;3.15;1.10;;;16.40;44.20;;;;;;4974278;28;20031;-80
2022/03/19 11:20:33;;;;;;;2.08;1.00;;;16.40;44.00;;;;;;4976326;28;20030;-81
2022/03/19 11:23:01;;;;;;;5.68;1.40;;;16.40;43.50;;;;;;4988675;28;20027;-81
2022/03/19 11:25:30;;;;;;;3.95;1.40;;;16.60;43.70;;;;;;4973828;28;20044;-80
2022/03/19 11:28:06;;;;;;;3.75;1.30;;;16.70;43.40;;;;;;4989426;28;20038;-80
2022/03/19 11:30:37;;;;;;;2.60;1.45;;;16.70;43.20;;;;;;4977408;28;20049;-81
2022/03/19 11:33:17;;;;;;;2.13;1.40;;;16.70;42.80;;;;;;4958547;28;20084;-81
2022/03/19 11:36:05;;;;;;;2.42;1.42;;;16.70;42.50;;;;;;4992611;28;20038;-79
2022/03/19 11:38:32;;;;;;;5.72;2.13;;;16.70;42.10;;;;;;4986375;28;20030;-81
2022/03/19 11:40:58;;;;;;;2.60;1.50;;;16.70;43.00;;;;;;4982560;28;20706;-80
2022/03/19 11:43:33;;;;;;;5.15;1.40;;;16.80;42.90;;;;;;4976000;28;20122;-80
2022/03/19 11:46:00;;;;;;;3.42;1.80;;;16.90;42.60;;;;;;4994113;28;20041;-81
2022/03/19 11:48:35;;;;;;;3.60;2.00;;;16.90;42.50;;;;;;4984018;28;20035;-81
2022/03/19 11:51:37;;;;;;;6.13;2.47;;;17.20;41.80;;;;;;4994997;28;20692;-81
2022/03/19 11:54:02;;;;;;;4.93;1.98;;;17.20;41.10;;;;;;4981020;28;20035;-80
2022/03/19 11:56:48;;;;;;;2.72;1.73;;;17.30;42.20;;;;;;4979616;28;20038;-82
2022/03/19 11:59:16;;;;;;;3.78;1.75;;;17.40;40.80;;;;;;5011320;28;20038;-81
2022/03/19 12:01:49;;;;;;;3.83;1.65;;;17.40;41.60;;;;;;4985579;28;20030;-80
2022/03/19 12:04:17;;;;;;;4.75;1.67;;;17.50;41.10;;;;;;4985224;28;20042;-81
2022/03/19 12:07:09;;;;;;;5.40;1.88;;;17.50;41.40;;;;;;4999702;28;20046;-81
2022/03/19 12:09:40;;;;;;;2.83;2.03;;;17.50;39.60;;;;;;4980217;28;20066;-80
2022/03/19 12:12:15;;;;;;;;;;;17.50;40.50;;;;;;4985967;28;20054;-80
2022/03/19 12:14:41;;;;;;;2.88;1.45;;;17.50;41.10;;;;;;4977630;28;19944;-79
2022/03/19 12:17:25;;;;;;;1.70;1.17;;;17.60;41.40;;;;;;5009213;28;20110;-80
2022/03/19 12:20:01;;;;;;;2.15;1.27;;;17.70;40.00;;;;;;4985628;28;20034;-82
2022/03/19 12:22:40;;;;;;;4.07;1.00;;;17.70;40.00;;;;;;4991567;28;20034;-80
2022/03/19 12:25:16;;;;;;;2.75;1.23;;;17.80;39.30;;;;;;4977592;28;20029;-80
2022/03/19 12:27:42;;;;;;;2.20;1.05;;;17.80;39.60;;;;;;4982014;28;20039;-74
2022/03/19 12:30:09;;;;;;;2.22;1.20;;;17.80;40.00;;;;;;4975639;28;20077;-79
2022/03/19 12:32:55;;;;;;;4.72;1.00;;;17.90;39.90;;;;;;4982667;28;20043;-78
2022/03/19 12:35:29;;;;;;;2.13;1.02;;;18.00;38.70;;;;;;4979879;28;20050;-78
2022/03/19 12:37:56;;;;;;;2.15;1.00;;;18.00;39.60;;;;;;4984822;28;20033;-79
2022/03/19 12:43:17;;;;;;;8.52;1.80;;;18.20;39.20;;;;;;4958379;28;20041;-79
2022/03/19 12:45:46;;;;;;;3.45;1.45;;;18.10;39.00;;;;;;4979522;28;20042;-80
2022/03/19 12:48:14;;;;;;;17.85;1.95;;;18.10;38.80;;;;;;4990070;28;20048;-78
2022/03/19 12:50:41;;;;;;;3.83;1.23;;;18.10;38.70;;;;;;4960803;28;20035;-78
2022/03/19 12:53:06;;;;;;;3.92;1.40;;;18.20;38.50;;;;;;4980499;28;20044;-79
2022/03/19 12:55:32;;;;;;;4.40;1.40;;;18.20;38.30;;;;;;4985887;28;20043;-78
2022/03/19 12:57:58;;;;;;;2.75;1.45;;;18.00;38.20;;;;;;4991388;28;20038;-78
2022/03/19 13:00:24;;;;;;;2.53;0.95;;;17.80;38.40;;;;;;4971661;28;20039;-81
2022/03/19 13:02:54;;;;;;;3.80;1.40;;;17.70;38.40;;;;;;4978022;28;20057;-83
2022/03/19 13:05:23;;;;;;;2.22;1.10;;;17.50;38.20;;;;;;4976016;28;20109;-79
2022/03/19 13:08:07;;;;;;;5.95;1.77;;;17.30;38.60;;;;;;4966391;28;20049;-79
2022/03/19 13:10:49;;;;;;;5.57;1.27;;;17.30;37.50;;;;;;4971458;28;20038;-81
2022/03/19 13:13:15;;;;;;;5.90;1.67;;;17.10;37.90;;;;;;4993022;28;20034;-80
2022/03/19 13:15:47;;;;;;;4.35;1.10;;;16.70;38.40;;;;;;4989270;28;20052;-80